createdAt,value
2022-08-11T00:03:52.000Z,98504.56
2022-08-11T00:08:59.122Z,98494.66
2022-08-11T00:14:16.327Z,98494.38
2022-08-11T00:20:15.315Z,98492.75
2022-08-11T00:24:56.016Z,98489.53
2022-08-11T00:30:06.669Z,98482.66
2022-08-11T00:35:54.047Z,98493.50
2022-08-11T00:40:54.236Z,98495.59
2022-08-11T00:46:19.495Z,98483.28
2022-08-11T00:52:05.107Z,98486.31
2022-08-11T00:57:46.257Z,98486.03
2022-08-11T01:03:19.062Z,98482.22
2022-08-11T01:08:59.267Z,98484.50
2022-08-11T01:14:54.146Z,98483.97
2022-08-11T01:20:46.864Z,98482.16
2022-08-11T01:26:37.673Z,98483.44
2022-08-11T01:32:11.530Z,98489.31
2022-08-11T01:37:59.297Z,98500.66
2022-08-11T01:44:12.561Z,98503.50
2022-08-11T01:50:07.822Z,98496.38
2022-08-11T01:55:15.914Z,98502.28
2022-08-11T02:00:26.263Z,98493.34
2022-08-11T02:05:51.108Z,98497.03
2022-08-11T02:11:35.805Z,98494.19
2022-08-11T02:17:14.979Z,98490.75
2022-08-11T02:22:50.859Z,98488.03
2022-08-11T02:28:09.621Z,98494.44
2022-08-11T02:33:34.409Z,98487.53
2022-08-11T02:38:56.883Z,98486.22
2022-08-11T02:44:24.068Z,98491.97
2022-08-11T02:50:06.989Z,98492.84
2022-08-11T02:55:48.627Z,98489.75
2022-08-11T03:01:11.644Z,98500.50
2022-08-11T03:06:37.791Z,98493.41
2022-08-11T03:12:16.732Z,98497.66
2022-08-11T03:17:31.717Z,98492.19
2022-08-11T03:22:50.743Z,98489.22
2022-08-11T03:28:09.900Z,98491.28
2022-08-11T03:33:43.743Z,98491.47
2022-08-11T03:39:09.164Z,98499.28
2022-08-11T03:44:40.787Z,98495.63
2022-08-11T03:50:08.746Z,98493.16
2022-08-11T03:55:29.483Z,98501.69
2022-08-11T04:01:24.047Z,98505.81
2022-08-11T04:07:25.520Z,98507.78
2022-08-11T04:13:14.160Z,98511.47
2022-08-11T04:19:02.168Z,98504.75
2022-08-11T04:24:51.319Z,98508.00
2022-08-11T04:30:12.330Z,98513.00
2022-08-11T04:35:47.344Z,98516.81
2022-08-11T04:41:33.014Z,98506.75
2022-08-11T04:47:11.534Z,98517.25
2022-08-11T04:53:01.387Z,98514.50
2022-08-11T04:58:40.098Z,98524.06
2022-08-11T05:04:40.200Z,98527.84
2022-08-11T05:10:22.680Z,98536.31
2022-08-11T05:16:03.243Z,98531.94
2022-08-11T05:21:30.784Z,98537.91
2022-08-11T05:27:13.747Z,98534.72
2022-08-11T05:32:38.005Z,98537.09
2022-08-11T05:38:03.630Z,98543.47
2022-08-11T05:43:33.127Z,98541.13
2022-08-11T05:48:59.898Z,98539.56
2022-08-11T05:54:29.138Z,98542.50
2022-08-11T05:59:35.068Z,98536.19
2022-08-11T06:04:41.622Z,98548.66
2022-08-11T06:09:51.649Z,98542.25
2022-08-11T06:14:59.104Z,98546.84
2022-08-11T06:20:11.786Z,98547.81
2022-08-11T06:25:18.755Z,98548.56
2022-08-11T06:30:39.946Z,98536.66
2022-08-11T06:36:02.790Z,98547.09
2022-08-11T06:41:31.946Z,98540.22
2022-08-11T06:46:40.514Z,98537.44
2022-08-11T06:51:50.330Z,98537.06
2022-08-11T06:57:29.254Z,98534.34
2022-08-11T07:02:46.384Z,98529.81
2022-08-11T07:08:44.078Z,98523.44
2022-08-11T07:14:10.982Z,98526.63
2022-08-11T07:19:42.929Z,98527.91
2022-08-11T07:25:19.989Z,98521.22
2022-08-11T07:30:27.804Z,98518.44
2022-08-11T07:35:36.539Z,98516.66
2022-08-11T07:40:46.169Z,98521.09
2022-08-11T07:46:16.761Z,98520.53
2022-08-11T07:51:39.733Z,98506.03
2022-08-11T07:56:55.057Z,98493.50
2022-08-11T08:02:19.075Z,98497.63
2022-08-11T08:07:42.769Z,98498.50
2022-08-11T08:13:06.419Z,98488.81
2022-08-11T08:18:26.329Z,98485.28
2022-08-11T08:23:34.488Z,98485.66
2022-08-11T08:28:41.751Z,98487.19
2022-08-11T08:33:46.974Z,98494.00
2022-08-11T08:38:55.054Z,98492.31
2022-08-11T08:44:35.206Z,98490.59
2022-08-11T08:49:40.600Z,98487.50
2022-08-11T08:54:49.650Z,98478.84
2022-08-11T08:59:56.497Z,98488.72
2022-08-11T09:05:02.414Z,98493.13
2022-08-11T09:10:09.749Z,98482.59
2022-08-11T09:15:19.929Z,98480.56
2022-08-11T09:20:29.115Z,98469.41
2022-08-11T09:25:52.682Z,98472.94
2022-08-11T09:31:02.424Z,98459.06
2022-08-11T09:36:23.334Z,98463.91
2022-08-11T09:41:27.875Z,98457.34
2022-08-11T09:46:59.830Z,98455.34
2022-08-11T09:52:09.469Z,98439.72
2022-08-11T09:57:31.794Z,98434.09
2022-08-11T10:02:45.724Z,98425.66
2022-08-11T10:07:54.303Z,98438.88
2022-08-11T10:13:04.393Z,98430.31
2022-08-11T10:18:32.285Z,98420.75
2022-08-11T10:24:01.464Z,98424.03
2022-08-11T10:29:33.434Z,98404.41
2022-08-11T10:34:54.534Z,98398.00
2022-08-11T10:40:01.974Z,98400.22
2022-08-11T10:45:30.097Z,98390.59
2022-08-11T10:50:54.114Z,98401.09
2022-08-11T10:56:18.707Z,98398.53
2022-08-11T11:01:27.433Z,98401.25
2022-08-11T11:06:44.874Z,98387.25
2022-08-11T11:12:11.786Z,98374.78
2022-08-11T11:17:37.452Z,98382.31
2022-08-11T11:22:48.973Z,98377.41
2022-08-11T11:28:35.514Z,98373.41
2022-08-11T11:34:12.644Z,98370.28
2022-08-11T11:39:22.926Z,98366.41
2022-08-11T11:44:29.307Z,98365.31
2022-08-11T11:49:39.251Z,98353.63
2022-08-11T11:54:50.280Z,98353.84
2022-08-11T12:00:13.963Z,98339.97
2022-08-11T12:05:19.218Z,98339.28
2022-08-11T12:10:25.489Z,98328.28
2022-08-11T12:16:31.852Z,98327.47
2022-08-11T12:20:55.593Z,98314.22
2022-08-11T12:26:27.719Z,98306.69
2022-08-11T12:31:33.599Z,98289.53
2022-08-11T12:36:42.081Z,98287.59
2022-08-11T12:42:06.305Z,98287.22
2022-08-11T12:47:11.973Z,98279.22
2022-08-11T12:52:25.708Z,98266.19
2022-08-11T12:57:55.167Z,98254.03
2022-08-11T13:03:17.946Z,98257.88
2022-08-11T13:08:26.647Z,98246.91
2022-08-11T13:13:54.215Z,98251.84
2022-08-11T13:19:01.336Z,98250.38
2022-08-11T13:24:07.112Z,98231.47
2022-08-11T13:29:14.940Z,98229.53
2022-08-11T13:34:22.595Z,98217.25
2022-08-11T13:39:31.204Z,98214.16
2022-08-11T13:44:39.543Z,98214.44
2022-08-11T13:49:47.870Z,98215.03
2022-08-11T13:54:53.672Z,98194.69
2022-08-11T14:00:13.018Z,98200.25
2022-08-11T14:05:38.989Z,98195.56
2022-08-11T14:12:19.963Z,98188.81
2022-08-11T14:16:42.227Z,98193.59
2022-08-11T14:22:07.916Z,98183.50
2022-08-11T14:28:15.433Z,98181.19
2022-08-11T14:32:53.031Z,98179.41
2022-08-11T14:38:00.801Z,98168.88
2022-08-11T14:44:12.558Z,98159.16
2022-08-11T14:49:06.367Z,98156.88
2022-08-11T14:54:25.285Z,98157.94
2022-08-11T14:59:30.455Z,98144.47
2022-08-11T15:04:36.962Z,98145.91
2022-08-11T15:10:09.766Z,98130.53
2022-08-11T15:15:28.993Z,98136.34
2022-08-11T15:20:53.788Z,98130.22
2022-08-11T15:26:02.785Z,98126.59
2022-08-11T15:31:36.281Z,98118.88
2022-08-11T15:37:03.551Z,98113.72
2022-08-11T15:42:38.361Z,98114.72
2022-08-11T15:47:47.217Z,98109.56
2022-08-11T15:53:01.937Z,98110.91
2022-08-11T15:58:28.850Z,98103.63
2022-08-11T16:04:07.545Z,98103.06
2022-08-11T16:09:19.971Z,98094.63
2022-08-11T16:14:45.050Z,98088.34
2022-08-11T16:19:54.306Z,98098.88
2022-08-11T16:27:03.323Z,98094.81
2022-08-11T16:30:29.576Z,98092.69
2022-08-11T16:35:55.354Z,98092.06
2022-08-11T16:41:09.597Z,98080.81
2022-08-11T16:46:33.930Z,98076.72
2022-08-11T16:51:38.747Z,98081.41
2022-08-11T16:56:49.077Z,98081.19
2022-08-11T17:01:57.272Z,98077.00
2022-08-11T17:07:23.599Z,98073.69
2022-08-11T17:13:09.965Z,98074.81
2022-08-11T17:18:38.777Z,98082.59
2022-08-11T17:23:55.074Z,98078.81
2022-08-11T17:29:04.027Z,98086.78
2022-08-11T17:34:27.270Z,98087.72
2022-08-11T17:39:35.866Z,98090.03
2022-08-11T17:45:00.878Z,98094.41
2022-08-11T17:50:09.495Z,98103.94
2022-08-11T17:55:51.851Z,98104.63
2022-08-11T18:01:02.048Z,98113.56
2022-08-11T18:06:17.680Z,98120.44
2022-08-11T18:12:09.994Z,98119.06
2022-08-11T18:17:30.439Z,98132.28
2022-08-11T18:23:09.810Z,98132.31
2022-08-11T18:28:35.951Z,98129.53
2022-08-11T18:34:08.243Z,98144.09
2022-08-11T18:39:33.875Z,98144.03
2022-08-11T18:44:58.190Z,98149.84
2022-08-11T18:50:37.350Z,98154.31
2022-08-11T18:56:05.949Z,98159.66
2022-08-11T19:01:31.702Z,98166.28
2022-08-11T19:06:57.531Z,98171.53
2022-08-11T19:12:21.823Z,98173.44
2022-08-11T19:17:47.438Z,98191.47
2022-08-11T19:23:15.489Z,98186.97
2022-08-11T19:28:40.635Z,98196.56
2022-08-11T19:34:09.875Z,98196.69
2022-08-11T19:39:37.604Z,98199.09
2022-08-11T19:45:02.215Z,98201.97
2022-08-11T19:50:25.877Z,98202.16
2022-08-11T19:55:50.338Z,98199.13
2022-08-11T20:01:12.029Z,98205.72
2022-08-11T20:06:37.596Z,98212.69
2022-08-11T20:12:07.489Z,98216.88
2022-08-11T20:17:32.678Z,98218.88
2022-08-11T20:22:56.096Z,98224.47
2022-08-11T20:28:24.142Z,98220.78
2022-08-11T20:33:45.634Z,98227.19
2022-08-11T20:39:10.725Z,98227.56
2022-08-11T20:44:36.196Z,98238.03
2022-08-11T20:50:03.084Z,98241.13
2022-08-11T20:55:51.140Z,98243.25
2022-08-11T21:01:20.496Z,98231.38
2022-08-11T21:06:55.906Z,98243.53
2022-08-11T21:12:21.381Z,98241.53
2022-08-11T21:18:01.056Z,98251.06
2022-08-11T21:23:31.028Z,98251.44
2022-08-11T21:28:58.128Z,98260.31
2022-08-11T21:34:22.895Z,98268.34
2022-08-11T21:39:47.681Z,98264.06
2022-08-11T21:45:12.072Z,98267.47
2022-08-11T21:50:35.285Z,98259.63
2022-08-11T21:55:59.089Z,98264.94
2022-08-11T22:01:21.409Z,98258.25
2022-08-11T22:06:46.071Z,98250.06
2022-08-11T22:12:33.790Z,98242.19
2022-08-11T22:17:55.913Z,98243.53
2022-08-11T22:23:22.403Z,98239.94
2022-08-11T22:28:44.513Z,98246.41
2022-08-11T22:34:06.598Z,98249.81
2022-08-11T22:39:35.297Z,98251.66
2022-08-11T22:44:57.467Z,98249.91
2022-08-11T22:50:22.154Z,98248.47
2022-08-11T22:55:47.022Z,98250.38
2022-08-11T23:01:09.670Z,98249.63
2022-08-11T23:06:33.787Z,98250.22
2022-08-11T23:12:06.227Z,98243.81
2022-08-11T23:17:32.427Z,98250.94
2022-08-11T23:22:56.281Z,98255.09
2022-08-11T23:28:21.531Z,98245.63
2022-08-11T23:33:44.230Z,98251.94
2022-08-11T23:39:06.353Z,98244.63
2022-08-11T23:44:29.592Z,98243.31
2022-08-11T23:49:54.266Z,98243.16
2022-08-11T23:55:16.776Z,98235.09
